createdAt,value
2017-06-02T00:00:03.764Z,818.01
2017-06-02T00:00:08.087Z,818.01
2017-06-02T00:00:12.285Z,818.01
2017-06-02T00:00:16.597Z,817.99
2017-06-02T00:00:20.907Z,817.99
2017-06-02T00:00:24.987Z,818.01
2017-06-02T00:00:29.480Z,817.99
2017-06-02T00:00:33.799Z,817.99
2017-06-02T00:00:38.227Z,818
2017-06-02T00:00:42.659Z,817.98
2017-06-02T00:00:47.085Z,817.99
2017-06-02T00:00:51.548Z,817.99
2017-06-02T00:00:55.977Z,818.01
2017-06-02T00:01:00.363Z,818
2017-06-02T00:01:04.680Z,817.96
2017-06-02T00:01:08.988Z,817.98
2017-06-02T00:01:13.301Z,817.96
2017-06-02T00:01:17.610Z,817.95
2017-06-02T00:01:21.915Z,817.95
2017-06-02T00:01:26.106Z,817.96
2017-06-02T00:01:30.425Z,817.92
2017-06-02T00:01:34.762Z,817.94
2017-06-02T00:01:39.114Z,817.92
2017-06-02T00:01:43.539Z,817.93
2017-06-02T00:01:47.966Z,817.95
2017-06-02T00:01:52.404Z,817.93
2017-06-02T00:01:56.719Z,817.9
2017-06-02T00:02:01.159Z,817.92
2017-06-02T00:02:05.621Z,817.93
2017-06-02T00:02:09.944Z,817.9
2017-06-02T00:02:14.021Z,817.85
2017-06-02T00:02:18.326Z,817.91
2017-06-02T00:02:22.750Z,817.92
2017-06-02T00:02:26.834Z,817.9
2017-06-02T00:02:31.154Z,817.89
2017-06-02T00:02:35.593Z,817.87
2017-06-02T00:02:40.095Z,817.89
2017-06-02T00:02:44.544Z,817.91
2017-06-02T00:02:48.965Z,817.88
2017-06-02T00:02:53.152Z,817.83
2017-06-02T00:02:57.580Z,817.87
2017-06-02T00:03:01.884Z,817.86
2017-06-02T00:03:06.195Z,817.85
2017-06-02T00:03:10.626Z,817.85
2017-06-02T00:03:14.830Z,817.87
2017-06-02T00:03:19.160Z,817.85
2017-06-02T00:03:23.233Z,817.85
2017-06-02T00:03:27.541Z,817.85
2017-06-02T00:03:31.965Z,817.8
2017-06-02T00:03:36.394Z,817.83
2017-06-02T00:03:40.821Z,817.84
2017-06-02T00:03:45.247Z,817.84
2017-06-02T00:03:49.560Z,817.82
2017-06-02T00:03:53.863Z,817.84
2017-06-02T00:03:58.173Z,817.83
2017-06-02T00:04:02.364Z,817.82
2017-06-02T00:04:06.556Z,817.84
2017-06-02T00:04:10.872Z,817.81
2017-06-02T00:04:15.181Z,817.82
2017-06-02T00:04:19.549Z,817.83
2017-06-02T00:04:23.744Z,817.82
2017-06-02T00:04:27.935Z,817.78
2017-06-02T00:04:32.241Z,817.8
2017-06-02T00:04:36.663Z,817.79
2017-06-02T00:04:41.089Z,817.79
2017-06-02T00:04:45.514Z,817.79
2017-06-02T00:04:49.941Z,817.78
2017-06-02T00:04:54.190Z,817.81
2017-06-02T00:04:58.500Z,817.79
2017-06-02T00:05:02.809Z,817.79
2017-06-02T00:05:07.116Z,817.8
2017-06-02T00:05:11.435Z,817.82
2017-06-02T00:05:15.631Z,817.79
2017-06-02T00:05:19.936Z,817.78
2017-06-02T00:05:24.245Z,817.8
2017-06-02T00:05:28.445Z,817.79
2017-06-02T00:05:32.812Z,817.79
2017-06-02T00:05:37.269Z,817.79
2017-06-02T00:05:41.697Z,817.78
2017-06-02T00:05:46.126Z,817.76
2017-06-02T00:05:50.550Z,817.78
2017-06-02T00:05:54.863Z,817.78
2017-06-02T00:05:59.295Z,817.78
2017-06-02T00:06:03.548Z,817.76
2017-06-02T00:06:07.743Z,817.75
2017-06-02T00:06:11.954Z,817.73
2017-06-02T00:06:16.031Z,817.74
2017-06-02T00:06:20.343Z,817.73
2017-06-02T00:06:24.538Z,817.75
2017-06-02T00:06:28.965Z,817.75
2017-06-02T00:06:33.389Z,817.75
2017-06-02T00:06:37.817Z,817.74
2017-06-02T00:06:42.254Z,817.75
2017-06-02T00:06:46.452Z,817.74
2017-06-02T00:06:50.875Z,817.75
2017-06-02T00:06:55.306Z,817.72
2017-06-02T00:06:59.612Z,817.71
2017-06-02T00:07:03.803Z,817.75
2017-06-02T00:07:07.998Z,817.72
2017-06-02T00:07:12.312Z,817.75
2017-06-02T00:07:16.739Z,817.71
2017-06-02T00:07:21.051Z,817.74
2017-06-02T00:07:25.362Z,817.66
2017-06-02T00:07:29.788Z,817.75
2017-06-02T00:07:34.100Z,817.75
2017-06-02T00:07:38.405Z,817.75
2017-06-02T00:07:42.830Z,817.72
2017-06-02T00:07:47.153Z,817.68
2017-06-02T00:07:51.468Z,817.71
2017-06-02T00:07:55.775Z,817.72
2017-06-02T00:08:00.078Z,817.72
2017-06-02T00:08:04.707Z,817.69
2017-06-02T00:08:09.014Z,817.71
2017-06-02T00:08:13.088Z,817.7
2017-06-02T00:08:17.405Z,817.69
2017-06-02T00:08:21.725Z,817.67
2017-06-02T00:08:25.563Z,817.69
2017-06-02T00:08:29.754Z,817.7
2017-06-02T00:08:34.185Z,817.7
2017-06-02T00:08:38.626Z,817.65
2017-06-02T00:08:42.934Z,817.69
2017-06-02T00:08:47.238Z,817.68
2017-06-02T00:08:51.317Z,817.69
2017-06-02T00:08:55.756Z,817.68
2017-06-02T00:09:00.183Z,817.68
2017-06-02T00:09:04.692Z,817.7
2017-06-02T00:09:08.999Z,817.67
2017-06-02T00:09:13.189Z,817.68
2017-06-02T00:09:17.492Z,817.65
2017-06-02T00:09:21.919Z,817.66
2017-06-02T00:09:26.113Z,817.66
2017-06-02T00:09:30.429Z,817.66
2017-06-02T00:09:34.883Z,817.68
2017-06-02T00:09:39.315Z,817.66
2017-06-02T00:09:43.740Z,817.64
2017-06-02T00:09:48.166Z,817.64
2017-06-02T00:09:52.351Z,817.61
2017-06-02T00:09:56.771Z,817.6
2017-06-02T00:10:01.086Z,817.64
2017-06-02T00:10:05.314Z,817.67
2017-06-02T00:10:09.502Z,817.64
2017-06-02T00:10:13.690Z,817.66
2017-06-02T00:10:18.112Z,817.63
2017-06-02T00:10:22.542Z,817.64
2017-06-02T00:10:26.858Z,817.63
2017-06-02T00:10:31.289Z,817.63
2017-06-02T00:10:35.761Z,817.59
2017-06-02T00:10:40.205Z,817.6
2017-06-02T00:10:44.634Z,817.63
2017-06-02T00:10:48.944Z,817.61
2017-06-02T00:10:53.366Z,817.6
2017-06-02T00:10:57.789Z,817.56
2017-06-02T00:11:02.103Z,817.61
2017-06-02T00:11:06.302Z,817.6
2017-06-02T00:11:10.381Z,817.61
2017-06-02T00:11:14.810Z,817.59
2017-06-02T00:11:18.998Z,817.58
2017-06-02T00:11:23.185Z,817.59
2017-06-02T00:11:27.496Z,817.59
2017-06-02T00:11:31.803Z,817.6
2017-06-02T00:11:36.229Z,817.58
2017-06-02T00:11:40.427Z,817.58
2017-06-02T00:11:44.683Z,817.58
2017-06-02T00:11:48.990Z,817.58
2017-06-02T00:11:53.301Z,817.57
2017-06-02T00:11:57.722Z,817.6
2017-06-02T00:12:02.028Z,817.57
2017-06-02T00:12:06.339Z,817.59
2017-06-02T00:12:10.527Z,817.56
2017-06-02T00:12:14.726Z,817.58
2017-06-02T00:12:18.928Z,817.57
2017-06-02T00:12:23.015Z,817.58
2017-06-02T00:12:27.439Z,817.59
2017-06-02T00:12:31.630Z,817.6
2017-06-02T00:12:35.935Z,817.56
2017-06-02T00:12:40.125Z,817.55
2017-06-02T00:12:44.200Z,817.57
2017-06-02T00:12:48.674Z,817.53
2017-06-02T00:12:52.755Z,817.53
2017-06-02T00:12:57.184Z,817.56
2017-06-02T00:13:01.489Z,817.55
2017-06-02T00:13:05.915Z,817.52
2017-06-02T00:13:10.109Z,817.51
2017-06-02T00:13:14.300Z,817.54
2017-06-02T00:13:18.727Z,817.55
2017-06-02T00:13:22.926Z,817.56
2017-06-02T00:13:27.240Z,817.52
2017-06-02T00:13:31.319Z,817.53
2017-06-02T00:13:35.624Z,817.57
2017-06-02T00:13:39.931Z,817.55
2017-06-02T00:13:44.234Z,817.56
2017-06-02T00:13:48.675Z,817.56
2017-06-02T00:13:53.104Z,817.53
2017-06-02T00:13:57.534Z,817.5
2017-06-02T00:14:01.886Z,817.53
2017-06-02T00:14:06.241Z,817.56
2017-06-02T00:14:10.563Z,817.54
2017-06-02T00:14:14.642Z,817.52
2017-06-02T00:14:18.949Z,817.53
2017-06-02T00:14:23.251Z,817.58
2017-06-02T00:14:27.678Z,817.52
2017-06-02T00:14:31.926Z,817.51
2017-06-02T00:14:36.364Z,817.52
2017-06-02T00:14:40.789Z,817.52
2017-06-02T00:14:45.211Z,817.57
2017-06-02T00:14:49.635Z,817.53
2017-06-02T00:14:54.058Z,817.54
2017-06-02T00:14:58.483Z,817.54
2017-06-02T00:15:02.947Z,817.53
2017-06-02T00:15:07.144Z,817.53
2017-06-02T00:15:11.335Z,817.52
2017-06-02T00:15:15.530Z,817.49
2017-06-02T00:15:19.723Z,817.48
2017-06-02T00:15:24.027Z,817.51
2017-06-02T00:15:28.218Z,817.51
2017-06-02T00:15:32.407Z,817.53
2017-06-02T00:15:36.722Z,817.5
2017-06-02T00:15:41.042Z,817.51
2017-06-02T00:15:45.470Z,817.52
2017-06-02T00:15:49.899Z,817.52
2017-06-02T00:15:54.324Z,817.51
2017-06-02T00:15:58.750Z,817.51
2017-06-02T00:16:03.477Z,817.5
2017-06-02T00:16:07.691Z,817.53
2017-06-02T00:16:11.768Z,817.53
2017-06-02T00:16:16.077Z,817.51
2017-06-02T00:16:20.511Z,817.46
2017-06-02T00:16:24.585Z,817.5
2017-06-02T00:16:28.538Z,817.5
2017-06-02T00:16:32.844Z,817.52
2017-06-02T00:16:36.924Z,817.51
2017-06-02T00:16:41.238Z,817.52
2017-06-02T00:16:45.555Z,817.5
2017-06-02T00:16:49.991Z,817.5
2017-06-02T00:16:54.305Z,817.51
2017-06-02T00:16:58.732Z,817.51
2017-06-02T00:17:03.274Z,817.49
2017-06-02T00:17:07.715Z,817.51
2017-06-02T00:17:12.539Z,817.5
2017-06-02T00:17:17.646Z,817.49
2017-06-02T00:17:22.652Z,817.51
2017-06-02T00:17:27.026Z,817.49
2017-06-02T00:17:31.552Z,817.49
2017-06-02T00:17:37.136Z,817.46
2017-06-02T00:17:41.662Z,817.52
2017-06-02T00:17:46.562Z,817.5
2017-06-02T00:17:51.502Z,817.5
2017-06-02T00:17:56.460Z,817.46
2017-06-02T00:18:01.877Z,817.48
2017-06-02T00:18:07.091Z,817.49
2017-06-02T00:18:12.849Z,817.51
2017-06-02T00:18:17.409Z,817.52
2017-06-02T00:18:22.018Z,817.53
2017-06-02T00:18:26.341Z,817.5
2017-06-02T00:18:30.672Z,817.51
2017-06-02T00:18:34.859Z,817.42
2017-06-02T00:18:39.289Z,817.43
2017-06-02T00:18:43.720Z,817.47
2017-06-02T00:18:48.030Z,817.49
2017-06-02T00:18:52.478Z,817.49
2017-06-02T00:18:56.912Z,817.49
2017-06-02T00:19:01.344Z,817.5
2017-06-02T00:19:05.924Z,817.45
2017-06-02T00:19:10.373Z,817.45
2017-06-02T00:19:14.683Z,817.51
2017-06-02T00:19:18.876Z,817.47
2017-06-02T00:19:22.840Z,817.48
2017-06-02T00:19:27.153Z,817.49
2017-06-02T00:19:31.460Z,817.48
2017-06-02T00:19:35.780Z,817.5
2017-06-02T00:19:40.088Z,817.49
2017-06-02T00:19:44.397Z,817.48
2017-06-02T00:19:48.815Z,817.45
2017-06-02T00:19:53.134Z,817.48
2017-06-02T00:19:57.442Z,817.46
2017-06-02T00:20:01.754Z,817.47
2017-06-02T00:20:06.161Z,817.43
2017-06-02T00:20:10.473Z,817.44
2017-06-02T00:20:14.794Z,817.45
2017-06-02T00:20:19.108Z,817.46
2017-06-02T00:20:22.946Z,817.47
2017-06-02T00:20:27.342Z,817.44
2017-06-02T00:20:31.778Z,817.45
2017-06-02T00:20:36.218Z,817.46
2017-06-02T00:20:40.425Z,817.49
2017-06-02T00:20:44.851Z,817.46
2017-06-02T00:20:49.274Z,817.46
2017-06-02T00:20:53.345Z,817.49
2017-06-02T00:20:57.659Z,817.45
2017-06-02T00:21:02.091Z,817.44
2017-06-02T00:21:06.526Z,817.4
2017-06-02T00:21:10.675Z,817.41
2017-06-02T00:21:14.998Z,817.46
2017-06-02T00:21:19.199Z,817.44
2017-06-02T00:21:23.391Z,817.45
2017-06-02T00:21:27.579Z,817.45
2017-06-02T00:21:32.005Z,817.45
2017-06-02T00:21:36.431Z,817.44
2017-06-02T00:21:40.860Z,817.44
2017-06-02T00:21:45.289Z,817.42
2017-06-02T00:21:49.721Z,817.43
2017-06-02T00:21:54.027Z,817.41
2017-06-02T00:21:58.102Z,817.4
2017-06-02T00:22:02.631Z,817.42
2017-06-02T00:22:06.823Z,817.45
2017-06-02T00:22:11.014Z,817.42
2017-06-02T00:22:15.448Z,817.38
2017-06-02T00:22:19.857Z,817.4
2017-06-02T00:22:23.936Z,817.42
2017-06-02T00:22:28.248Z,817.38
2017-06-02T00:22:32.684Z,817.42
2017-06-02T00:22:36.887Z,817.41
2017-06-02T00:22:41.191Z,817.38
2017-06-02T00:22:45.686Z,817.41
2017-06-02T00:22:50.121Z,817.44
2017-06-02T00:22:54.331Z,817.4
2017-06-02T00:22:58.643Z,817.43
2017-06-02T00:23:03.071Z,817.41
2017-06-02T00:23:07.390Z,817.39
2017-06-02T00:23:11.461Z,817.41
2017-06-02T00:23:15.888Z,817.42
2017-06-02T00:23:20.202Z,817.41
2017-06-02T00:23:24.338Z,817.41
2017-06-02T00:23:28.831Z,817.4
2017-06-02T00:23:33.255Z,817.4
2017-06-02T00:23:37.567Z,817.41
2017-06-02T00:23:41.879Z,817.4
2017-06-02T00:23:46.309Z,817.39
2017-06-02T00:23:50.623Z,817.41
2017-06-02T00:23:55.050Z,817.41
2017-06-02T00:23:59.539Z,817.37
2017-06-02T00:24:03.999Z,817.4
2017-06-02T00:24:08.083Z,817.4
2017-06-02T00:24:12.269Z,817.39
2017-06-02T00:24:16.694Z,817.36
2017-06-02T00:24:21.012Z,817.4
2017-06-02T00:24:24.967Z,817.39
2017-06-02T00:24:29.046Z,817.35
2017-06-02T00:24:33.242Z,817.37
2017-06-02T00:24:37.437Z,817.36
2017-06-02T00:24:41.627Z,817.37
2017-06-02T00:24:45.937Z,817.36
2017-06-02T00:24:50.246Z,817.33
2017-06-02T00:24:54.671Z,817.37
2017-06-02T00:24:59.099Z,817.33
2017-06-02T00:25:03.418Z,817.34
2017-06-02T00:25:07.624Z,817.36
2017-06-02T00:25:11.939Z,817.37
2017-06-02T00:25:16.131Z,817.35
2017-06-02T00:25:20.559Z,817.34
2017-06-02T00:25:24.872Z,817.35
2017-06-02T00:25:29.177Z,817.31
2017-06-02T00:25:33.254Z,817.29
2017-06-02T00:25:37.715Z,817.32
2017-06-02T00:25:41.919Z,817.36
2017-06-02T00:25:46.346Z,817.33
2017-06-02T00:25:50.773Z,817.32
2017-06-02T00:25:55.084Z,817.33
2017-06-02T00:25:59.385Z,817.33
2017-06-02T00:26:03.861Z,817.3
2017-06-02T00:26:08.180Z,817.29
2017-06-02T00:26:12.263Z,817.28
2017-06-02T00:26:16.589Z,817.28
2017-06-02T00:26:21.015Z,817.31
2017-06-02T00:26:25.211Z,817.29
2017-06-02T00:26:29.530Z,817.29
2017-06-02T00:26:33.718Z,817.33
2017-06-02T00:26:38.141Z,817.21
2017-06-02T00:26:42.453Z,817.29
2017-06-02T00:26:46.883Z,817.23
2017-06-02T00:26:51.204Z,817.3
2017-06-02T00:26:55.636Z,817.26
2017-06-02T00:26:59.953Z,817.23
2017-06-02T00:27:04.155Z,817.24
2017-06-02T00:27:08.243Z,817.21
2017-06-02T00:27:12.549Z,817.26
2017-06-02T00:27:16.864Z,817.21
2017-06-02T00:27:21.179Z,817.24
2017-06-02T00:27:25.377Z,817.23
2017-06-02T00:27:29.578Z,817.25
2017-06-02T00:27:34.004Z,817.21
2017-06-02T00:27:38.429Z,817.24
2017-06-02T00:27:42.624Z,817.16
2017-06-02T00:27:47.061Z,817.23
2017-06-02T00:27:51.374Z,817.25
2017-06-02T00:27:55.605Z,817.17
2017-06-02T00:27:59.928Z,817.19
2017-06-02T00:28:04.248Z,817.19
2017-06-02T00:28:08.443Z,817.19
2017-06-02T00:28:12.635Z,817.21
2017-06-02T00:28:16.827Z,817.17
2017-06-02T00:28:21.138Z,817.19
2017-06-02T00:28:25.214Z,817.14
2017-06-02T00:28:29.649Z,817.14
2017-06-02T00:28:34.168Z,817.14
2017-06-02T00:28:38.477Z,817.11
2017-06-02T00:28:42.788Z,817.15
2017-06-02T00:28:47.097Z,817.1
2017-06-02T00:28:51.526Z,817.08
2017-06-02T00:28:55.714Z,817.12
2017-06-02T00:29:00.041Z,817.14
2017-06-02T00:29:04.362Z,817.14
2017-06-02T00:29:08.706Z,817.12
2017-06-02T00:29:12.895Z,817.11
2017-06-02T00:29:17.089Z,817.06
2017-06-02T00:29:21.530Z,817.08
2017-06-02T00:29:25.837Z,817.09
2017-06-02T00:29:30.145Z,817.08
2017-06-02T00:29:34.467Z,817.05
2017-06-02T00:29:38.785Z,817.09
2017-06-02T00:29:42.746Z,817.09
2017-06-02T00:29:46.933Z,817.03
2017-06-02T00:29:51.241Z,817.05
2017-06-02T00:29:55.553Z,817.01
2017-06-02T00:29:59.872Z,817.04
2017-06-02T00:30:04.070Z,817.05
2017-06-02T00:30:08.449Z,817.05
2017-06-02T00:30:12.873Z,817.02
2017-06-02T00:30:17.189Z,817.04
2017-06-02T00:30:21.620Z,816.98
2017-06-02T00:30:25.816Z,817
2017-06-02T00:30:30.011Z,817
2017-06-02T00:30:34.446Z,816.94
2017-06-02T00:30:38.763Z,816.99
2017-06-02T00:30:43.086Z,816.95
2017-06-02T00:30:47.510Z,816.97
2017-06-02T00:30:51.944Z,816.98
2017-06-02T00:30:56.375Z,816.98
2017-06-02T00:31:00.803Z,816.94
2017-06-02T00:31:05.230Z,816.97
2017-06-02T00:31:09.315Z,816.94
2017-06-02T00:31:13.517Z,816.91
2017-06-02T00:31:17.947Z,816.94
2017-06-02T00:31:22.371Z,816.95
2017-06-02T00:31:26.675Z,816.86
2017-06-02T00:31:30.984Z,816.91
2017-06-02T00:31:35.175Z,816.87
2017-06-02T00:31:39.489Z,816.86
2017-06-02T00:31:43.978Z,816.84
2017-06-02T00:31:48.298Z,816.85
2017-06-02T00:31:52.613Z,816.82
2017-06-02T00:31:56.925Z,816.85
2017-06-02T00:32:01.360Z,816.82
2017-06-02T00:32:05.753Z,816.8
2017-06-02T00:32:10.065Z,816.8
2017-06-02T00:32:14.141Z,816.77
2017-06-02T00:32:18.349Z,816.76
2017-06-02T00:32:22.686Z,816.76
2017-06-02T00:32:27.000Z,816.75
2017-06-02T00:32:31.199Z,816.74
2017-06-02T00:32:35.631Z,816.65
2017-06-02T00:32:40.063Z,816.7
2017-06-02T00:32:44.257Z,816.65
2017-06-02T00:32:48.686Z,816.64
2017-06-02T00:32:52.891Z,816.62
2017-06-02T00:32:57.210Z,816.59
2017-06-02T00:33:01.632Z,816.6
2017-06-02T00:33:05.940Z,816.6
2017-06-02T00:33:10.012Z,816.59
2017-06-02T00:33:14.200Z,816.57
2017-06-02T00:33:18.625Z,816.53
2017-06-02T00:33:23.056Z,816.54
2017-06-02T00:33:27.370Z,816.52
2017-06-02T00:33:31.705Z,816.48
2017-06-02T00:33:36.014Z,816.5
2017-06-02T00:33:40.443Z,816.45
2017-06-02T00:33:44.753Z,816.45
2017-06-02T00:33:48.938Z,816.43
2017-06-02T00:33:53.255Z,816.37
2017-06-02T00:33:57.689Z,816.4
2017-06-02T00:34:02.037Z,816.4
2017-06-02T00:34:06.346Z,816.35
2017-06-02T00:34:10.657Z,816.33
2017-06-02T00:34:14.966Z,816.36
2017-06-02T00:34:19.270Z,816.32
2017-06-02T00:34:23.464Z,816.31
2017-06-02T00:34:27.771Z,816.29
2017-06-02T00:34:32.097Z,816.3
2017-06-02T00:34:36.420Z,816.27
2017-06-02T00:34:40.729Z,816.22
2017-06-02T00:34:45.046Z,816.21
2017-06-02T00:34:49.237Z,816.21
2017-06-02T00:34:53.541Z,816.19
2017-06-02T00:34:57.965Z,816.17
2017-06-02T00:35:02.281Z,816.13
2017-06-02T00:35:06.596Z,816.14
2017-06-02T00:35:10.927Z,816.11
2017-06-02T00:35:15.357Z,816.11
2017-06-02T00:35:19.663Z,816.09
2017-06-02T00:35:23.737Z,816.06
2017-06-02T00:35:28.048Z,816.08
2017-06-02T00:35:32.479Z,816.01
2017-06-02T00:35:36.871Z,816
2017-06-02T00:35:41.195Z,815.99
2017-06-02T00:35:45.629Z,815.97
2017-06-02T00:35:49.943Z,815.98
2017-06-02T00:35:54.129Z,815.95
2017-06-02T00:35:58.550Z,815.9
2017-06-02T00:36:02.866Z,815.9
2017-06-02T00:36:07.185Z,815.9
2017-06-02T00:36:11.390Z,815.86
2017-06-02T00:36:15.715Z,815.89
2017-06-02T00:36:20.020Z,815.86
2017-06-02T00:36:24.327Z,815.81
2017-06-02T00:36:28.400Z,815.84
2017-06-02T00:36:32.827Z,815.8
2017-06-02T00:36:37.015Z,815.78
2017-06-02T00:36:41.211Z,815.81
2017-06-02T00:36:45.652Z,815.79
2017-06-02T00:36:50.087Z,815.79
2017-06-02T00:36:54.397Z,815.78
2017-06-02T00:36:58.825Z,815.75
2017-06-02T00:37:03.333Z,815.72
2017-06-02T00:37:07.523Z,815.75
2017-06-02T00:37:11.731Z,815.71
2017-06-02T00:37:16.160Z,815.72
2017-06-02T00:37:20.479Z,815.65
2017-06-02T00:37:24.789Z,815.66
2017-06-02T00:37:28.981Z,815.68
2017-06-02T00:37:33.401Z,815.66
2017-06-02T00:37:37.723Z,815.65
2017-06-02T00:37:42.035Z,815.6
2017-06-02T00:37:46.465Z,815.64
2017-06-02T00:37:50.666Z,815.57
2017-06-02T00:37:54.745Z,815.54
2017-06-02T00:37:59.166Z,815.53
2017-06-02T00:38:03.791Z,815.58
2017-06-02T00:38:08.113Z,815.55
2017-06-02T00:38:12.424Z,815.52
2017-06-02T00:38:16.650Z,815.54
2017-06-02T00:38:21.088Z,815.51
2017-06-02T00:38:25.216Z,815.48
2017-06-02T00:38:29.525Z,815.51
2017-06-02T00:38:33.832Z,815.5
2017-06-02T00:38:38.257Z,815.5
2017-06-02T00:38:42.680Z,815.48
2017-06-02T00:38:46.985Z,815.49
2017-06-02T00:38:51.177Z,815.45
2017-06-02T00:38:55.492Z,815.37
2017-06-02T00:38:59.921Z,815.45
2017-06-02T00:39:04.111Z,815.44
2017-06-02T00:39:08.426Z,815.38
2017-06-02T00:39:12.620Z,815.39
2017-06-02T00:39:16.806Z,815.4
2017-06-02T00:39:21.116Z,815.39
2017-06-02T00:39:25.431Z,815.36
2017-06-02T00:39:29.630Z,815.36
2017-06-02T00:39:33.964Z,815.38
2017-06-02T00:39:38.399Z,815.33
2017-06-02T00:39:42.826Z,815.3
2017-06-02T00:39:47.264Z,815.32
2017-06-02T00:39:51.573Z,815.31
2017-06-02T00:39:55.883Z,815.36
2017-06-02T00:40:00.198Z,815.31
2017-06-02T00:40:04.398Z,815.3
2017-06-02T00:40:08.472Z,815.29
2017-06-02T00:40:12.546Z,815.25
2017-06-02T00:40:16.973Z,815.28
2017-06-02T00:40:21.048Z,815.24
2017-06-02T00:40:25.237Z,815.25
2017-06-02T00:40:29.668Z,815.22
2017-06-02T00:40:33.984Z,815.2
2017-06-02T00:40:38.291Z,815.24
2017-06-02T00:40:42.599Z,815.22
2017-06-02T00:40:46.786Z,815.22
2017-06-02T00:40:51.099Z,815.22
2017-06-02T00:40:55.413Z,815.19
2017-06-02T00:40:59.847Z,815.23
2017-06-02T00:41:04.632Z,815.19
2017-06-02T00:41:08.730Z,815.18
2017-06-02T00:41:12.925Z,815.17
2017-06-02T00:41:17.374Z,815.16
2017-06-02T00:41:21.680Z,815.1
2017-06-02T00:41:25.986Z,815.09
2017-06-02T00:41:30.412Z,815.11
2017-06-02T00:41:34.487Z,815.11
2017-06-02T00:41:38.880Z,815.1
2017-06-02T00:41:43.313Z,815.1
2017-06-02T00:41:47.739Z,815.07
2017-06-02T00:41:52.108Z,815.1
2017-06-02T00:41:56.299Z,815.08
2017-06-02T00:42:00.604Z,815.07
2017-06-02T00:42:05.032Z,815.04
2017-06-02T00:42:09.223Z,815.05
2017-06-02T00:42:13.653Z,815.06
2017-06-02T00:42:17.970Z,815.02
2017-06-02T00:42:22.282Z,815.06
2017-06-02T00:42:26.492Z,815.02
2017-06-02T00:42:30.944Z,814.96
2017-06-02T00:42:35.378Z,815.03
2017-06-02T00:42:39.567Z,814.98
2017-06-02T00:42:43.938Z,814.99
2017-06-02T00:42:48.256Z,814.97
2017-06-02T00:42:52.441Z,814.98
2017-06-02T00:42:56.866Z,814.98
2017-06-02T00:43:01.059Z,814.96
2017-06-02T00:43:05.418Z,814.97
2017-06-02T00:43:09.728Z,814.91
2017-06-02T00:43:14.066Z,814.93
2017-06-02T00:43:18.381Z,814.93
2017-06-02T00:43:22.813Z,814.91
2017-06-02T00:43:27.118Z,814.87
2017-06-02T00:43:31.428Z,814.87
2017-06-02T00:43:35.852Z,814.88
2017-06-02T00:43:40.045Z,814.88
2017-06-02T00:43:44.354Z,814.85
2017-06-02T00:43:48.785Z,814.91
2017-06-02T00:43:53.217Z,814.82
2017-06-02T00:43:57.654Z,814.89
2017-06-02T00:44:02.262Z,814.89
2017-06-02T00:44:06.567Z,814.83
2017-06-02T00:44:10.639Z,814.86
2017-06-02T00:44:14.944Z,814.84
2017-06-02T00:44:19.365Z,814.81
2017-06-02T00:44:23.569Z,814.83
2017-06-02T00:44:27.888Z,814.8
2017-06-02T00:44:32.202Z,814.79
2017-06-02T00:44:36.513Z,814.77
2017-06-02T00:44:40.822Z,814.79
2017-06-02T00:44:45.013Z,814.79
2017-06-02T00:44:49.439Z,814.74
2017-06-02T00:44:53.752Z,814.76
2017-06-02T00:44:58.068Z,814.76
2017-06-02T00:45:02.391Z,814.75
2017-06-02T00:45:06.815Z,814.7
2017-06-02T00:45:11.021Z,814.76
2017-06-02T00:45:15.445Z,814.73
2017-06-02T00:45:19.645Z,814.74
2017-06-02T00:45:23.835Z,814.74
2017-06-02T00:45:28.203Z,814.73
2017-06-02T00:45:32.405Z,814.71
2017-06-02T00:45:36.721Z,814.73
2017-06-02T00:45:41.025Z,814.67
2017-06-02T00:45:45.447Z,814.67
2017-06-02T00:45:49.753Z,814.67
2017-06-02T00:45:54.095Z,814.66
2017-06-02T00:45:58.175Z,814.68
2017-06-02T00:46:02.681Z,814.67
2017-06-02T00:46:07.114Z,814.63
2017-06-02T00:46:11.430Z,814.67
2017-06-02T00:46:15.624Z,814.66
2017-06-02T00:46:20.046Z,814.64
2017-06-02T00:46:24.471Z,814.64
2017-06-02T00:46:28.901Z,814.61
2017-06-02T00:46:33.326Z,814.6
2017-06-02T00:46:37.762Z,814.61
2017-06-02T00:46:42.090Z,814.61
2017-06-02T00:46:46.172Z,814.63
2017-06-02T00:46:50.603Z,814.54
2017-06-02T00:46:55.038Z,814.63
2017-06-02T00:46:59.342Z,814.6
2017-06-02T00:47:03.906Z,814.59
2017-06-02T00:47:08.221Z,814.55
2017-06-02T00:47:12.191Z,814.6
2017-06-02T00:47:16.646Z,814.64
2017-06-02T00:47:20.955Z,814.58
2017-06-02T00:47:25.267Z,814.57
2017-06-02T00:47:29.691Z,814.54
2017-06-02T00:47:33.761Z,814.53
2017-06-02T00:47:38.191Z,814.5
2017-06-02T00:47:42.639Z,814.51
2017-06-02T00:47:46.949Z,814.54
2017-06-02T00:47:51.135Z,814.56
2017-06-02T00:47:55.559Z,814.56
2017-06-02T00:47:59.869Z,814.5
2017-06-02T00:48:04.143Z,814.53
2017-06-02T00:48:08.102Z,814.51
2017-06-02T00:48:12.059Z,814.46
2017-06-02T00:48:16.852Z,814.49
2017-06-02T00:48:21.294Z,814.48
2017-06-02T00:48:25.600Z,814.44
2017-06-02T00:48:29.799Z,814.46
2017-06-02T00:48:34.232Z,814.48
2017-06-02T00:48:38.659Z,814.48
2017-06-02T00:48:42.853Z,814.49
2017-06-02T00:48:47.169Z,814.44
2017-06-02T00:48:51.599Z,814.48
2017-06-02T00:48:55.924Z,814.47
2017-06-02T00:49:00.233Z,814.43
2017-06-02T00:49:04.806Z,814.41
2017-06-02T00:49:09.286Z,814.47
2017-06-02T00:49:13.358Z,814.44
2017-06-02T00:49:17.788Z,814.44
2017-06-02T00:49:22.099Z,814.44
2017-06-02T00:49:26.473Z,814.42
2017-06-02T00:49:30.926Z,814.44
2017-06-02T00:49:35.349Z,814.44
2017-06-02T00:49:39.775Z,814.43
2017-06-02T00:49:44.278Z,814.39
2017-06-02T00:49:48.583Z,814.46
2017-06-02T00:49:53.022Z,814.42
2017-06-02T00:49:57.461Z,814.42
2017-06-02T00:50:01.655Z,814.42
2017-06-02T00:50:05.967Z,814.38
2017-06-02T00:50:10.284Z,814.4
2017-06-02T00:50:14.477Z,814.41
2017-06-02T00:50:18.596Z,814.42
2017-06-02T00:50:23.023Z,814.39
2017-06-02T00:50:27.454Z,814.39
2017-06-02T00:50:31.771Z,814.37
2017-06-02T00:50:36.199Z,814.39
2017-06-02T00:50:40.394Z,814.35
2017-06-02T00:50:44.586Z,814.37
2017-06-02T00:50:48.902Z,814.39
2017-06-02T00:50:53.327Z,814.34
2017-06-02T00:50:57.758Z,814.37
2017-06-02T00:51:02.282Z,814.38
2017-06-02T00:51:06.598Z,814.36
2017-06-02T00:51:11.052Z,814.36
2017-06-02T00:51:15.475Z,814.33
2017-06-02T00:51:19.548Z,814.36
2017-06-02T00:51:23.739Z,814.36
2017-06-02T00:51:28.053Z,814.34
2017-06-02T00:51:32.480Z,814.33
2017-06-02T00:51:36.752Z,814.32
2017-06-02T00:51:41.192Z,814.34
2017-06-02T00:51:45.499Z,814.36
2017-06-02T00:51:49.808Z,814.32
2017-06-02T00:51:54.131Z,814.32
2017-06-02T00:51:58.439Z,814.32
2017-06-02T00:52:02.874Z,814.28
2017-06-02T00:52:07.077Z,814.31
2017-06-02T00:52:11.395Z,814.32
2017-06-02T00:52:15.712Z,814.33
2017-06-02T00:52:20.147Z,814.35
2017-06-02T00:52:24.375Z,814.29
2017-06-02T00:52:28.805Z,814.32
2017-06-02T00:52:33.246Z,814.31
2017-06-02T00:52:37.670Z,814.33
2017-06-02T00:52:42.105Z,814.3
2017-06-02T00:52:46.608Z,814.29
2017-06-02T00:52:50.919Z,814.31
2017-06-02T00:52:55.227Z,814.31
2017-06-02T00:52:59.540Z,814.29
2017-06-02T00:53:03.937Z,814.27
2017-06-02T00:53:08.367Z,814.28
2017-06-02T00:53:12.604Z,814.27
2017-06-02T00:53:16.986Z,814.27
2017-06-02T00:53:21.432Z,814.29
2017-06-02T00:53:25.385Z,814.29
2017-06-02T00:53:29.697Z,814.26
2017-06-02T00:53:34.119Z,814.25
2017-06-02T00:53:38.545Z,814.27
2017-06-02T00:53:42.966Z,814.25
2017-06-02T00:53:47.275Z,814.28
2017-06-02T00:53:51.711Z,814.29
2017-06-02T00:53:56.042Z,814.27
2017-06-02T00:54:00.233Z,814.28
2017-06-02T00:54:04.429Z,814.26
2017-06-02T00:54:08.507Z,814.25
2017-06-02T00:54:12.816Z,814.22
2017-06-02T00:54:17.136Z,814.29